sensor_id;sensor_type;location;lat;lon;timestamp;P1;durP1;ratioP1;P2;durP2;ratioP2
17763;SDS011;22245;52.832;13.816;2023-03-31T00:00:35;7.70;;;3.22;;
17763;SDS011;22245;52.832;13.816;2023-03-31T00:03:57;7.72;;;3.20;;
17763;SDS011;22245;52.832;13.816;2023-03-31T00:07:24;10.88;;;3.05;;
17763;SDS011;22245;52.832;13.816;2023-03-31T00:10:47;6.43;;;2.70;;
17763;SDS011;22245;52.832;13.816;2023-03-31T00:14:09;6.10;;;3.03;;
17763;SDS011;22245;52.832;13.816;2023-03-31T00:17:30;11.73;;;3.85;;
17763;SDS011;22245;52.832;13.816;2023-03-31T00:20:53;10.77;;;3.08;;
17763;SDS011;22245;52.832;13.816;2023-03-31T00:24:17;7.63;;;3.25;;
17763;SDS011;22245;52.832;13.816;2023-03-31T00:27:41;7.40;;;2.90;;
17763;SDS011;22245;52.832;13.816;2023-03-31T00:31:04;5.72;;;2.85;;
17763;SDS011;22245;52.832;13.816;2023-03-31T00:34:26;8.18;;;2.70;;
17763;SDS011;22245;52.832;13.816;2023-03-31T00:37:48;8.87;;;3.17;;
17763;SDS011;22245;52.832;13.816;2023-03-31T00:41:10;8.43;;;2.70;;
17763;SDS011;22245;52.832;13.816;2023-03-31T00:44:34;5.13;;;2.40;;
17763;SDS011;22245;52.832;13.816;2023-03-31T00:48:02;7.45;;;2.70;;
17763;SDS011;22245;52.832;13.816;2023-03-31T00:51:29;6.03;;;2.58;;
17763;SDS011;22245;52.832;13.816;2023-03-31T00:54:54;6.57;;;2.30;;
17763;SDS011;22245;52.832;13.816;2023-03-31T00:58:20;8.90;;;2.30;;
17763;SDS011;22245;52.832;13.816;2023-03-31T01:01:48;6.80;;;2.60;;
17763;SDS011;22245;52.832;13.816;2023-03-31T01:05:11;5.70;;;2.58;;
17763;SDS011;22245;52.832;13.816;2023-03-31T01:08:33;5.97;;;2.30;;
17763;SDS011;22245;52.832;13.816;2023-03-31T01:11:56;5.95;;;2.50;;
17763;SDS011;22245;52.832;13.816;2023-03-31T01:15:18;6.63;;;2.70;;
17763;SDS011;22245;52.832;13.816;2023-03-31T01:18:41;6.70;;;2.22;;
17763;SDS011;22245;52.832;13.816;2023-03-31T01:22:13;7.35;;;2.78;;
17763;SDS011;22245;52.832;13.816;2023-03-31T01:26:13;6.28;;;2.53;;
17763;SDS011;22245;52.832;13.816;2023-03-31T01:41:49;8.68;;;2.42;;
17763;SDS011;22245;52.832;13.816;2023-03-31T01:45:23;8.02;;;2.53;;
17763;SDS011;22245;52.832;13.816;2023-03-31T01:48:51;6.80;;;2.05;;
17763;SDS011;22245;52.832;13.816;2023-03-31T01:52:18;3.60;;;2.10;;
17763;SDS011;22245;52.832;13.816;2023-03-31T01:55:45;5.18;;;2.20;;
17763;SDS011;22245;52.832;13.816;2023-03-31T01:59:15;7.25;;;2.22;;
17763;SDS011;22245;52.832;13.816;2023-03-31T02:02:41;7.80;;;2.40;;
17763;SDS011;22245;52.832;13.816;2023-03-31T02:06:09;6.25;;;2.00;;
17763;SDS011;22245;52.832;13.816;2023-03-31T02:09:36;5.75;;;2.20;;
17763;SDS011;22245;52.832;13.816;2023-03-31T02:13:01;10.52;;;2.50;;
17763;SDS011;22245;52.832;13.816;2023-03-31T02:16:27;7.60;;;1.83;;
17763;SDS011;22245;52.832;13.816;2023-03-31T02:19:53;6.13;;;2.17;;
17763;SDS011;22245;52.832;13.816;2023-03-31T02:23:18;5.68;;;1.60;;
17763;SDS011;22245;52.832;13.816;2023-03-31T02:26:46;8.82;;;1.90;;
17763;SDS011;22245;52.832;13.816;2023-03-31T02:30:12;5.50;;;1.90;;
17763;SDS011;22245;52.832;13.816;2023-03-31T02:33:36;7.13;;;1.80;;
17763;SDS011;22245;52.832;13.816;2023-03-31T02:36:58;8.23;;;2.75;;
17763;SDS011;22245;52.832;13.816;2023-03-31T02:40:20;8.48;;;2.03;;
17763;SDS011;22245;52.832;13.816;2023-03-31T02:43:46;5.75;;;2.20;;
17763;SDS011;22245;52.832;13.816;2023-03-31T02:47:08;5.07;;;2.10;;
17763;SDS011;22245;52.832;13.816;2023-03-31T02:50:41;4.47;;;2.17;;
17763;SDS011;22245;52.832;13.816;2023-03-31T02:54:26;5.53;;;2.47;;
17763;SDS011;22245;52.832;13.816;2023-03-31T02:58:11;5.72;;;2.00;;
17763;SDS011;22245;52.832;13.816;2023-03-31T03:02:03;8.40;;;2.13;;
17763;SDS011;22245;52.832;13.816;2023-03-31T03:05:32;6.25;;;2.20;;
17763;SDS011;22245;52.832;13.816;2023-03-31T03:09:25;6.60;;;2.10;;
17763;SDS011;22245;52.832;13.816;2023-03-31T03:12:55;5.23;;;2.10;;
17763;SDS011;22245;52.832;13.816;2023-03-31T03:16:23;6.20;;;2.13;;
17763;SDS011;22245;52.832;13.816;2023-03-31T03:19:50;7.43;;;2.28;;
17763;SDS011;22245;52.832;13.816;2023-03-31T03:23:13;5.05;;;2.22;;
17763;SDS011;22245;52.832;13.816;2023-03-31T03:26:37;6.03;;;2.15;;
17763;SDS011;22245;52.832;13.816;2023-03-31T03:29:59;3.77;;;1.70;;
17763;SDS011;22245;52.832;13.816;2023-03-31T03:33:21;6.38;;;2.00;;
17763;SDS011;22245;52.832;13.816;2023-03-31T03:36:43;8.15;;;2.00;;
17763;SDS011;22245;52.832;13.816;2023-03-31T03:40:06;4.83;;;2.30;;
17763;SDS011;22245;52.832;13.816;2023-03-31T03:43:31;7.72;;;1.92;;
17763;SDS011;22245;52.832;13.816;2023-03-31T03:46:53;6.07;;;2.00;;
17763;SDS011;22245;52.832;13.816;2023-03-31T03:50:15;4.60;;;2.00;;
17763;SDS011;22245;52.832;13.816;2023-03-31T03:53:36;8.27;;;2.10;;
17763;SDS011;22245;52.832;13.816;2023-03-31T03:56:58;7.60;;;2.03;;
17763;SDS011;22245;52.832;13.816;2023-03-31T04:00:21;7.30;;;1.80;;
17763;SDS011;22245;52.832;13.816;2023-03-31T04:03:43;3.50;;;1.57;;
17763;SDS011;22245;52.832;13.816;2023-03-31T04:07:04;5.17;;;1.90;;
17763;SDS011;22245;52.832;13.816;2023-03-31T04:10:26;8.20;;;1.90;;
17763;SDS011;22245;52.832;13.816;2023-03-31T04:13:48;5.80;;;1.60;;
17763;SDS011;22245;52.832;13.816;2023-03-31T04:17:11;4.33;;;2.17;;
17763;SDS011;22245;52.832;13.816;2023-03-31T04:20:35;7.78;;;2.08;;
17763;SDS011;22245;52.832;13.816;2023-03-31T04:23:56;6.40;;;2.10;;
17763;SDS011;22245;52.832;13.816;2023-03-31T04:27:21;4.32;;;2.20;;
17763;SDS011;22245;52.832;13.816;2023-03-31T04:30:46;9.47;;;2.50;;
17763;SDS011;22245;52.832;13.816;2023-03-31T04:34:09;5.30;;;2.03;;
17763;SDS011;22245;52.832;13.816;2023-03-31T04:37:33;5.75;;;2.08;;
17763;SDS011;22245;52.832;13.816;2023-03-31T04:40:54;8.18;;;2.28;;
17763;SDS011;22245;52.832;13.816;2023-03-31T04:44:16;6.00;;;2.55;;
17763;SDS011;22245;52.832;13.816;2023-03-31T04:47:38;10.15;;;2.40;;
17763;SDS011;22245;52.832;13.816;2023-03-31T04:51:03;11.85;;;2.50;;
17763;SDS011;22245;52.832;13.816;2023-03-31T04:54:25;11.55;;;3.33;;
17763;SDS011;22245;52.832;13.816;2023-03-31T04:57:47;6.50;;;2.30;;
17763;SDS011;22245;52.832;13.816;2023-03-31T05:01:09;6.43;;;2.40;;
17763;SDS011;22245;52.832;13.816;2023-03-31T05:04:32;8.03;;;3.20;;
17763;SDS011;22245;52.832;13.816;2023-03-31T05:07:56;5.90;;;2.53;;
17763;SDS011;22245;52.832;13.816;2023-03-31T05:11:18;4.10;;;2.50;;
17763;SDS011;22245;52.832;13.816;2023-03-31T05:14:40;7.50;;;3.08;;
17763;SDS011;22245;52.832;13.816;2023-03-31T05:18:02;9.98;;;3.05;;
17763;SDS011;22245;52.832;13.816;2023-03-31T05:21:24;5.55;;;2.33;;
17763;SDS011;22245;52.832;13.816;2023-03-31T05:24:51;6.50;;;2.33;;
17763;SDS011;22245;52.832;13.816;2023-03-31T05:28:12;8.43;;;3.40;;
17763;SDS011;22245;52.832;13.816;2023-03-31T05:31:34;7.28;;;2.55;;
17763;SDS011;22245;52.832;13.816;2023-03-31T05:34:56;6.97;;;3.30;;
17763;SDS011;22245;52.832;13.816;2023-03-31T05:38:18;6.85;;;3.10;;
17763;SDS011;22245;52.832;13.816;2023-03-31T05:41:41;8.98;;;3.38;;
17763;SDS011;22245;52.832;13.816;2023-03-31T05:45:03;7.25;;;2.60;;
17763;SDS011;22245;52.832;13.816;2023-03-31T05:48:28;8.93;;;2.72;;
17763;SDS011;22245;52.832;13.816;2023-03-31T05:51:50;5.57;;;2.20;;
17763;SDS011;22245;52.832;13.816;2023-03-31T05:55:12;6.13;;;2.33;;
17763;SDS011;22245;52.832;13.816;2023-03-31T05:58:35;5.93;;;2.17;;
17763;SDS011;22245;52.832;13.816;2023-03-31T06:01:57;7.55;;;2.15;;
17763;SDS011;22245;52.832;13.816;2023-03-31T06:05:19;4.68;;;1.70;;
17763;SDS011;22245;52.832;13.816;2023-03-31T06:08:42;3.80;;;1.73;;
17763;SDS011;22245;52.832;13.816;2023-03-31T06:12:04;7.40;;;2.10;;
17763;SDS011;22245;52.832;13.816;2023-03-31T06:15:28;6.28;;;2.05;;
17763;SDS011;22245;52.832;13.816;2023-03-31T06:18:50;6.13;;;2.10;;
17763;SDS011;22245;52.832;13.816;2023-03-31T06:22:12;6.03;;;1.98;;
17763;SDS011;22245;52.832;13.816;2023-03-31T06:25:36;4.70;;;1.80;;
17763;SDS011;22245;52.832;13.816;2023-03-31T06:29:10;5.45;;;2.35;;
17763;SDS011;22245;52.832;13.816;2023-03-31T06:32:33;10.13;;;2.30;;
17763;SDS011;22245;52.832;13.816;2023-03-31T06:35:55;6.35;;;2.08;;
17763;SDS011;22245;52.832;13.816;2023-03-31T06:39:18;5.35;;;1.58;;
17763;SDS011;22245;52.832;13.816;2023-03-31T06:42:39;6.68;;;2.00;;
17763;SDS011;22245;52.832;13.816;2023-03-31T06:46:02;7.82;;;1.83;;
17763;SDS011;22245;52.832;13.816;2023-03-31T06:49:25;6.00;;;2.20;;
17763;SDS011;22245;52.832;13.816;2023-03-31T06:52:47;4.40;;;1.60;;
17763;SDS011;22245;52.832;13.816;2023-03-31T06:56:11;6.07;;;2.03;;
17763;SDS011;22245;52.832;13.816;2023-03-31T06:59:33;9.13;;;2.15;;
17763;SDS011;22245;52.832;13.816;2023-03-31T07:02:55;5.20;;;1.60;;
17763;SDS011;22245;52.832;13.816;2023-03-31T07:06:18;4.60;;;1.70;;
17763;SDS011;22245;52.832;13.816;2023-03-31T07:09:40;5.28;;;1.77;;
17763;SDS011;22245;52.832;13.816;2023-03-31T07:13:01;7.15;;;1.90;;
17763;SDS011;22245;52.832;13.816;2023-03-31T07:16:24;6.10;;;1.83;;
17763;SDS011;22245;52.832;13.816;2023-03-31T07:19:46;6.22;;;1.80;;
17763;SDS011;22245;52.832;13.816;2023-03-31T07:23:09;8.43;;;1.90;;
17763;SDS011;22245;52.832;13.816;2023-03-31T07:26:31;8.02;;;2.72;;
17763;SDS011;22245;52.832;13.816;2023-03-31T07:29:52;9.48;;;1.90;;
17763;SDS011;22245;52.832;13.816;2023-03-31T07:33:14;3.95;;;1.95;;
17763;SDS011;22245;52.832;13.816;2023-03-31T07:36:36;6.32;;;2.17;;
17763;SDS011;22245;52.832;13.816;2023-03-31T07:39:59;6.18;;;1.77;;
17763;SDS011;22245;52.832;13.816;2023-03-31T07:43:21;6.03;;;1.80;;
17763;SDS011;22245;52.832;13.816;2023-03-31T07:46:43;5.82;;;2.22;;
17763;SDS011;22245;52.832;13.816;2023-03-31T07:50:05;10.02;;;2.75;;
17763;SDS011;22245;52.832;13.816;2023-03-31T07:53:28;15.88;;;2.75;;
17763;SDS011;22245;52.832;13.816;2023-03-31T07:56:52;6.57;;;1.70;;
17763;SDS011;22245;52.832;13.816;2023-03-31T08:00:14;7.18;;;1.90;;
17763;SDS011;22245;52.832;13.816;2023-03-31T08:03:37;4.25;;;1.60;;
17763;SDS011;22245;52.832;13.816;2023-03-31T08:06:58;5.72;;;1.80;;
17763;SDS011;22245;52.832;13.816;2023-03-31T08:10:21;7.65;;;1.95;;
17763;SDS011;22245;52.832;13.816;2023-03-31T08:13:45;7.82;;;1.88;;
17763;SDS011;22245;52.832;13.816;2023-03-31T08:17:07;3.20;;;1.60;;
17763;SDS011;22245;52.832;13.816;2023-03-31T08:20:30;8.07;;;1.90;;
17763;SDS011;22245;52.832;13.816;2023-03-31T08:23:52;17.52;;;2.80;;
17763;SDS011;22245;52.832;13.816;2023-03-31T08:27:14;8.00;;;1.90;;
17763;SDS011;22245;52.832;13.816;2023-03-31T08:30:37;5.00;;;1.73;;
17763;SDS011;22245;52.832;13.816;2023-03-31T08:33:59;6.35;;;1.70;;
17763;SDS011;22245;52.832;13.816;2023-03-31T08:37:21;8.05;;;2.00;;
17763;SDS011;22245;52.832;13.816;2023-03-31T08:40:43;5.25;;;1.65;;
17763;SDS011;22245;52.832;13.816;2023-03-31T08:44:06;14.38;;;2.42;;
17763;SDS011;22245;52.832;13.816;2023-03-31T08:47:33;5.80;;;1.80;;
17763;SDS011;22245;52.832;13.816;2023-03-31T08:50:58;8.88;;;2.05;;
17763;SDS011;22245;52.832;13.816;2023-03-31T08:54:27;5.65;;;1.83;;
17763;SDS011;22245;52.832;13.816;2023-03-31T08:57:55;5.10;;;1.77;;
17763;SDS011;22245;52.832;13.816;2023-03-31T09:01:23;6.53;;;1.83;;
17763;SDS011;22245;52.832;13.816;2023-03-31T09:05:24;7.75;;;3.17;;
17763;SDS011;22245;52.832;13.816;2023-03-31T09:09:18;7.30;;;1.85;;
17763;SDS011;22245;52.832;13.816;2023-03-31T09:12:48;7.03;;;1.40;;
17763;SDS011;22245;52.832;13.816;2023-03-31T09:16:17;8.60;;;1.98;;
17763;SDS011;22245;52.832;13.816;2023-03-31T09:19:44;7.63;;;2.20;;
17763;SDS011;22245;52.832;13.816;2023-03-31T09:23:18;5.65;;;1.90;;
17763;SDS011;22245;52.832;13.816;2023-03-31T09:26:46;3.13;;;1.90;;
17763;SDS011;22245;52.832;13.816;2023-03-31T09:30:13;6.30;;;1.80;;
17763;SDS011;22245;52.832;13.816;2023-03-31T09:33:37;6.05;;;1.90;;
17763;SDS011;22245;52.832;13.816;2023-03-31T09:37:02;8.52;;;2.13;;
17763;SDS011;22245;52.832;13.816;2023-03-31T09:40:26;7.97;;;2.08;;
17763;SDS011;22245;52.832;13.816;2023-03-31T09:43:48;5.70;;;2.30;;
17763;SDS011;22245;52.832;13.816;2023-03-31T09:47:11;5.03;;;2.17;;
17763;SDS011;22245;52.832;13.816;2023-03-31T09:50:39;9.35;;;2.47;;
17763;SDS011;22245;52.832;13.816;2023-03-31T09:54:06;7.90;;;2.80;;
17763;SDS011;22245;52.832;13.816;2023-03-31T09:57:37;4.65;;;2.00;;
17763;SDS011;22245;52.832;13.816;2023-03-31T10:01:01;10.10;;;2.38;;
17763;SDS011;22245;52.832;13.816;2023-03-31T10:04:26;7.57;;;2.25;;
17763;SDS011;22245;52.832;13.816;2023-03-31T10:07:50;6.93;;;2.40;;
17763;SDS011;22245;52.832;13.816;2023-03-31T10:11:13;8.52;;;2.97;;
17763;SDS011;22245;52.832;13.816;2023-03-31T10:14:39;6.35;;;2.10;;
17763;SDS011;22245;52.832;13.816;2023-03-31T10:18:04;7.57;;;2.15;;
17763;SDS011;22245;52.832;13.816;2023-03-31T10:21:27;7.35;;;2.65;;
17763;SDS011;22245;52.832;13.816;2023-03-31T10:25:06;7.63;;;2.40;;
17763;SDS011;22245;52.832;13.816;2023-03-31T10:28:31;6.40;;;2.00;;
17763;SDS011;22245;52.832;13.816;2023-03-31T10:31:59;8.25;;;2.88;;
17763;SDS011;22245;52.832;13.816;2023-03-31T10:35:24;8.60;;;2.80;;
17763;SDS011;22245;52.832;13.816;2023-03-31T10:38:50;7.72;;;2.17;;
17763;SDS011;22245;52.832;13.816;2023-03-31T10:42:18;5.40;;;1.75;;
17763;SDS011;22245;52.832;13.816;2023-03-31T10:45:43;7.43;;;2.47;;
17763;SDS011;22245;52.832;13.816;2023-03-31T10:49:24;7.28;;;1.90;;
17763;SDS011;22245;52.832;13.816;2023-03-31T10:52:47;4.68;;;1.92;;
17763;SDS011;22245;52.832;13.816;2023-03-31T10:56:14;7.28;;;2.15;;
17763;SDS011;22245;52.832;13.816;2023-03-31T10:59:48;9.40;;;2.53;;
17763;SDS011;22245;52.832;13.816;2023-03-31T11:03:30;5.82;;;1.83;;
17763;SDS011;22245;52.832;13.816;2023-03-31T11:07:06;5.82;;;1.83;;
17763;SDS011;22245;52.832;13.816;2023-03-31T11:10:40;9.82;;;2.65;;
17763;SDS011;22245;52.832;13.816;2023-03-31T11:14:13;10.10;;;2.08;;
17763;SDS011;22245;52.832;13.816;2023-03-31T11:17:45;11.38;;;2.20;;
17763;SDS011;22245;52.832;13.816;2023-03-31T11:21:19;6.55;;;1.60;;
17763;SDS011;22245;52.832;13.816;2023-03-31T11:28:51;4.25;;;1.75;;
17763;SDS011;22245;52.832;13.816;2023-03-31T11:32:30;5.10;;;1.73;;
17763;SDS011;22245;52.832;13.816;2023-03-31T11:36:04;3.70;;;1.65;;
17763;SDS011;22245;52.832;13.816;2023-03-31T11:39:38;8.48;;;1.95;;
17763;SDS011;22245;52.832;13.816;2023-03-31T11:43:11;7.03;;;1.98;;
17763;SDS011;22245;52.832;13.816;2023-03-31T11:46:40;5.55;;;1.70;;
17763;SDS011;22245;52.832;13.816;2023-03-31T11:50:08;7.15;;;2.30;;
17763;SDS011;22245;52.832;13.816;2023-03-31T11:53:33;5.25;;;2.15;;
17763;SDS011;22245;52.832;13.816;2023-03-31T11:56:58;7.10;;;2.10;;
17763;SDS011;22245;52.832;13.816;2023-03-31T12:00:26;3.42;;;1.75;;
17763;SDS011;22245;52.832;13.816;2023-03-31T12:03:52;6.40;;;2.00;;
17763;SDS011;22245;52.832;13.816;2023-03-31T12:07:21;4.72;;;1.80;;
17763;SDS011;22245;52.832;13.816;2023-03-31T12:10:49;4.90;;;2.00;;
17763;SDS011;22245;52.832;13.816;2023-03-31T12:14:20;5.85;;;2.08;;
17763;SDS011;22245;52.832;13.816;2023-03-31T12:17:49;4.70;;;2.05;;
17763;SDS011;22245;52.832;13.816;2023-03-31T12:21:16;4.00;;;2.15;;
17763;SDS011;22245;52.832;13.816;2023-03-31T12:24:39;6.63;;;2.25;;
17763;SDS011;22245;52.832;13.816;2023-03-31T12:28:01;7.93;;;2.17;;
17763;SDS011;22245;52.832;13.816;2023-03-31T12:31:24;6.35;;;2.45;;
17763;SDS011;22245;52.832;13.816;2023-03-31T12:34:52;6.80;;;2.45;;
17763;SDS011;22245;52.832;13.816;2023-03-31T12:38:20;5.45;;;2.42;;
17763;SDS011;22245;52.832;13.816;2023-03-31T12:41:55;5.30;;;2.47;;
17763;SDS011;22245;52.832;13.816;2023-03-31T12:45:28;3.72;;;2.47;;
17763;SDS011;22245;52.832;13.816;2023-03-31T12:48:53;4.63;;;2.83;;
17763;SDS011;22245;52.832;13.816;2023-03-31T12:52:26;4.15;;;2.90;;
17763;SDS011;22245;52.832;13.816;2023-03-31T12:55:59;4.03;;;2.95;;
17763;SDS011;22245;52.832;13.816;2023-03-31T12:59:23;2.53;;;2.03;;
17763;SDS011;22245;52.832;13.816;2023-03-31T13:06:51;5.32;;;2.10;;
17763;SDS011;22245;52.832;13.816;2023-03-31T13:10:22;4.40;;;2.22;;
17763;SDS011;22245;52.832;13.816;2023-03-31T13:13:56;3.55;;;1.73;;
17763;SDS011;22245;52.832;13.816;2023-03-31T13:17:24;4.75;;;2.38;;
17763;SDS011;22245;52.832;13.816;2023-03-31T13:20:56;2.83;;;2.13;;
17763;SDS011;22245;52.832;13.816;2023-03-31T13:24:20;2.88;;;2.17;;
17763;SDS011;22245;52.832;13.816;2023-03-31T13:27:48;4.68;;;2.10;;
17763;SDS011;22245;52.832;13.816;2023-03-31T13:31:12;5.57;;;2.83;;
17763;SDS011;22245;52.832;13.816;2023-03-31T13:34:36;6.15;;;2.28;;
17763;SDS011;22245;52.832;13.816;2023-03-31T13:38:05;6.25;;;2.00;;
17763;SDS011;22245;52.832;13.816;2023-03-31T13:41:38;3.75;;;2.03;;
17763;SDS011;22245;52.832;13.816;2023-03-31T13:45:17;8.77;;;5.00;;
17763;SDS011;22245;52.832;13.816;2023-03-31T13:48:48;5.53;;;2.63;;
17763;SDS011;22245;52.832;13.816;2023-03-31T13:52:27;5.53;;;1.70;;
17763;SDS011;22245;52.832;13.816;2023-03-31T13:56:07;6.70;;;2.92;;
17763;SDS011;22245;52.832;13.816;2023-03-31T13:59:43;6.88;;;2.80;;
17763;SDS011;22245;52.832;13.816;2023-03-31T14:03:39;4.55;;;2.33;;
17763;SDS011;22245;52.832;13.816;2023-03-31T14:07:14;5.07;;;2.45;;
17763;SDS011;22245;52.832;13.816;2023-03-31T14:10:38;4.53;;;2.40;;
17763;SDS011;22245;52.832;13.816;2023-03-31T14:14:03;4.63;;;1.90;;
17763;SDS011;22245;52.832;13.816;2023-03-31T14:17:27;5.82;;;3.25;;
17763;SDS011;22245;52.832;13.816;2023-03-31T14:20:57;5.32;;;2.47;;
17763;SDS011;22245;52.832;13.816;2023-03-31T14:24:29;5.25;;;2.10;;
17763;SDS011;22245;52.832;13.816;2023-03-31T14:27:59;4.68;;;2.00;;
17763;SDS011;22245;52.832;13.816;2023-03-31T14:31:36;5.38;;;1.90;;
17763;SDS011;22245;52.832;13.816;2023-03-31T14:35:07;4.88;;;1.95;;
17763;SDS011;22245;52.832;13.816;2023-03-31T14:38:44;7.85;;;3.53;;
17763;SDS011;22245;52.832;13.816;2023-03-31T14:42:09;4.45;;;2.00;;
17763;SDS011;22245;52.832;13.816;2023-03-31T14:45:32;3.33;;;1.63;;
17763;SDS011;22245;52.832;13.816;2023-03-31T14:48:54;4.30;;;1.95;;
17763;SDS011;22245;52.832;13.816;2023-03-31T14:52:17;2.35;;;1.80;;
17763;SDS011;22245;52.832;13.816;2023-03-31T14:55:41;3.72;;;1.98;;
17763;SDS011;22245;52.832;13.816;2023-03-31T14:59:19;5.07;;;3.13;;
17763;SDS011;22245;52.832;13.816;2023-03-31T15:02:44;6.55;;;2.90;;
17763;SDS011;22245;52.832;13.816;2023-03-31T15:06:07;3.67;;;2.20;;
17763;SDS011;22245;52.832;13.816;2023-03-31T15:09:29;2.70;;;2.28;;
17763;SDS011;22245;52.832;13.816;2023-03-31T15:12:56;3.47;;;2.00;;
17763;SDS011;22245;52.832;13.816;2023-03-31T15:16:18;5.15;;;2.30;;
17763;SDS011;22245;52.832;13.816;2023-03-31T15:19:41;3.72;;;2.45;;
17763;SDS011;22245;52.832;13.816;2023-03-31T15:23:04;3.15;;;2.38;;
17763;SDS011;22245;52.832;13.816;2023-03-31T15:26:40;5.95;;;2.50;;
17763;SDS011;22245;52.832;13.816;2023-03-31T15:30:13;2.85;;;2.08;;
17763;SDS011;22245;52.832;13.816;2023-03-31T15:33:39;5.47;;;2.80;;
17763;SDS011;22245;52.832;13.816;2023-03-31T15:37:02;3.95;;;2.00;;
17763;SDS011;22245;52.832;13.816;2023-03-31T15:40:27;3.17;;;2.13;;
17763;SDS011;22245;52.832;13.816;2023-03-31T15:44:02;4.60;;;1.92;;
17763;SDS011;22245;52.832;13.816;2023-03-31T15:47:28;3.15;;;1.75;;
17763;SDS011;22245;52.832;13.816;2023-03-31T15:50:50;2.13;;;1.33;;
17763;SDS011;22245;52.832;13.816;2023-03-31T15:54:25;2.53;;;1.40;;
17763;SDS011;22245;52.832;13.816;2023-03-31T15:57:51;2.33;;;1.48;;
17763;SDS011;22245;52.832;13.816;2023-03-31T16:01:14;2.92;;;1.42;;
17763;SDS011;22245;52.832;13.816;2023-03-31T16:04:38;2.33;;;1.42;;
17763;SDS011;22245;52.832;13.816;2023-03-31T16:08:00;3.85;;;1.48;;
17763;SDS011;22245;52.832;13.816;2023-03-31T16:11:23;1.95;;;1.20;;
17763;SDS011;22245;52.832;13.816;2023-03-31T16:14:48;3.30;;;1.40;;
17763;SDS011;22245;52.832;13.816;2023-03-31T16:18:15;3.47;;;1.30;;
17763;SDS011;22245;52.832;13.816;2023-03-31T16:21:40;2.10;;;1.52;;
17763;SDS011;22245;52.832;13.816;2023-03-31T16:25:10;1.73;;;1.45;;
17763;SDS011;22245;52.832;13.816;2023-03-31T16:28:35;2.53;;;1.50;;
17763;SDS011;22245;52.832;13.816;2023-03-31T16:32:05;1.52;;;1.30;;
17763;SDS011;22245;52.832;13.816;2023-03-31T16:35:29;2.08;;;1.25;;
17763;SDS011;22245;52.832;13.816;2023-03-31T16:38:54;3.80;;;1.60;;
17763;SDS011;22245;52.832;13.816;2023-03-31T16:42:20;1.85;;;1.20;;
17763;SDS011;22245;52.832;13.816;2023-03-31T16:45:42;4.68;;;1.20;;
17763;SDS011;22245;52.832;13.816;2023-03-31T16:49:05;2.50;;;1.42;;
17763;SDS011;22245;52.832;13.816;2023-03-31T16:52:27;3.28;;;1.30;;
17763;SDS011;22245;52.832;13.816;2023-03-31T16:55:51;4.53;;;1.35;;
17763;SDS011;22245;52.832;13.816;2023-03-31T16:59:12;1.95;;;1.20;;
17763;SDS011;22245;52.832;13.816;2023-03-31T17:02:34;1.50;;;1.15;;
17763;SDS011;22245;52.832;13.816;2023-03-31T17:05:56;1.55;;;1.20;;
17763;SDS011;22245;52.832;13.816;2023-03-31T17:09:18;1.13;;;0.90;;
17763;SDS011;22245;52.832;13.816;2023-03-31T17:12:41;1.35;;;0.80;;
17763;SDS011;22245;52.832;13.816;2023-03-31T17:16:03;3.17;;;1.40;;
17763;SDS011;22245;52.832;13.816;2023-03-31T17:19:40;0.80;;;0.80;;
17763;SDS011;22245;52.832;13.816;2023-03-31T17:23:02;2.92;;;1.10;;
17763;SDS011;22245;52.832;13.816;2023-03-31T17:26:24;1.42;;;1.08;;
17763;SDS011;22245;52.832;13.816;2023-03-31T17:29:47;1.25;;;1.02;;
17763;SDS011;22245;52.832;13.816;2023-03-31T17:33:09;1.58;;;0.80;;
17763;SDS011;22245;52.832;13.816;2023-03-31T17:36:31;1.52;;;0.80;;
17763;SDS011;22245;52.832;13.816;2023-03-31T17:39:53;2.03;;;1.00;;
17763;SDS011;22245;52.832;13.816;2023-03-31T17:43:15;2.55;;;1.00;;
17763;SDS011;22245;52.832;13.816;2023-03-31T17:46:38;1.15;;;0.90;;
17763;SDS011;22245;52.832;13.816;2023-03-31T17:50:00;4.07;;;1.40;;
17763;SDS011;22245;52.832;13.816;2023-03-31T17:53:22;1.85;;;1.00;;
17763;SDS011;22245;52.832;13.816;2023-03-31T17:56:44;1.67;;;0.90;;
17763;SDS011;22245;52.832;13.816;2023-03-31T18:00:09;1.17;;;1.08;;
17763;SDS011;22245;52.832;13.816;2023-03-31T18:03:35;1.42;;;1.00;;
17763;SDS011;22245;52.832;13.816;2023-03-31T18:06:57;2.28;;;1.00;;
17763;SDS011;22245;52.832;13.816;2023-03-31T18:10:19;2.63;;;1.30;;
17763;SDS011;22245;52.832;13.816;2023-03-31T18:13:41;2.05;;;1.20;;
17763;SDS011;22245;52.832;13.816;2023-03-31T18:17:03;3.35;;;1.00;;
17763;SDS011;22245;52.832;13.816;2023-03-31T18:20:26;1.50;;;1.02;;
17763;SDS011;22245;52.832;13.816;2023-03-31T18:23:48;3.03;;;2.00;;
17763;SDS011;22245;52.832;13.816;2023-03-31T18:27:11;2.78;;;1.55;;
17763;SDS011;22245;52.832;13.816;2023-03-31T18:30:33;3.15;;;1.40;;
17763;SDS011;22245;52.832;13.816;2023-03-31T18:33:55;3.47;;;1.70;;
17763;SDS011;22245;52.832;13.816;2023-03-31T18:37:18;4.17;;;1.70;;
17763;SDS011;22245;52.832;13.816;2023-03-31T18:40:45;3.42;;;1.75;;
17763;SDS011;22245;52.832;13.816;2023-03-31T18:44:08;4.22;;;1.50;;
17763;SDS011;22245;52.832;13.816;2023-03-31T18:47:30;2.53;;;1.65;;
17763;SDS011;22245;52.832;13.816;2023-03-31T18:50:52;3.67;;;1.70;;
17763;SDS011;22245;52.832;13.816;2023-03-31T18:54:15;3.88;;;2.10;;
17763;SDS011;22245;52.832;13.816;2023-03-31T18:57:37;2.85;;;2.15;;
17763;SDS011;22245;52.832;13.816;2023-03-31T19:00:59;3.00;;;1.88;;
17763;SDS011;22245;52.832;13.816;2023-03-31T19:04:21;3.15;;;1.88;;
17763;SDS011;22245;52.832;13.816;2023-03-31T19:07:43;3.35;;;2.35;;
17763;SDS011;22245;52.832;13.816;2023-03-31T19:11:07;3.55;;;2.17;;
17763;SDS011;22245;52.832;13.816;2023-03-31T19:14:29;6.45;;;2.20;;
17763;SDS011;22245;52.832;13.816;2023-03-31T19:17:55;5.55;;;1.90;;
17763;SDS011;22245;52.832;13.816;2023-03-31T19:21:17;5.38;;;2.45;;
17763;SDS011;22245;52.832;13.816;2023-03-31T19:24:39;2.67;;;2.00;;
17763;SDS011;22245;52.832;13.816;2023-03-31T19:28:01;5.65;;;2.30;;
17763;SDS011;22245;52.832;13.816;2023-03-31T19:31:23;3.80;;;2.53;;
17763;SDS011;22245;52.832;13.816;2023-03-31T19:34:45;3.45;;;2.22;;
17763;SDS011;22245;52.832;13.816;2023-03-31T19:38:09;4.45;;;2.83;;
17763;SDS011;22245;52.832;13.816;2023-03-31T19:41:30;5.57;;;3.10;;
17763;SDS011;22245;52.832;13.816;2023-03-31T19:44:53;5.28;;;2.70;;
17763;SDS011;22245;52.832;13.816;2023-03-31T19:48:15;3.53;;;2.25;;
17763;SDS011;22245;52.832;13.816;2023-03-31T19:51:39;4.85;;;2.70;;
17763;SDS011;22245;52.832;13.816;2023-03-31T19:55:01;2.83;;;2.20;;
17763;SDS011;22245;52.832;13.816;2023-03-31T19:58:22;3.97;;;2.40;;
17763;SDS011;22245;52.832;13.816;2023-03-31T20:01:46;3.20;;;2.10;;
17763;SDS011;22245;52.832;13.816;2023-03-31T20:05:08;3.17;;;2.57;;
17763;SDS011;22245;52.832;13.816;2023-03-31T20:08:30;7.07;;;3.67;;
17763;SDS011;22245;52.832;13.816;2023-03-31T20:11:52;6.78;;;3.72;;
17763;SDS011;22245;52.832;13.816;2023-03-31T20:15:14;4.38;;;2.92;;
17763;SDS011;22245;52.832;13.816;2023-03-31T20:18:37;7.03;;;3.00;;
17763;SDS011;22245;52.832;13.816;2023-03-31T20:21:59;5.50;;;2.65;;
17763;SDS011;22245;52.832;13.816;2023-03-31T20:25:21;5.67;;;2.80;;
17763;SDS011;22245;52.832;13.816;2023-03-31T20:28:43;29.33;;;3.30;;
17763;SDS011;22245;52.832;13.816;2023-03-31T20:32:06;5.55;;;2.80;;
17763;SDS011;22245;52.832;13.816;2023-03-31T20:35:30;4.35;;;2.92;;
17763;SDS011;22245;52.832;13.816;2023-03-31T20:38:52;4.55;;;2.83;;